Time;durP1;ratioP1;P1;durP2;ratioP2;P2;SDS_P1;SDS_P2;PMS_P1;PMS_P2;Temp;Humidity;BMP_temperature;BMP_pressure;BME280_temperature;BME280_humidity;BME280_pressure;Samples;Min_cycle;Max_cycle;Signal;HPM_P1;HPM_P2
2023/03/10 06:53:30;;;;;;;3.38;1.35;;;;;;;;;;10524126;28;20398;-83
2023/03/10 06:58:32;;;;;;;5.88;2.35;;;;;;;;;;10521680;28;20075;-83
2023/03/10 07:03:38;;;;;;;4.95;1.90;;;;;;;;;;10519682;28;20020;-83
2023/03/10 07:08:39;;;;;;;3.13;1.38;;;;;;;;;;10524964;28;20035;-84
2023/03/10 07:13:41;;;;;;;4.57;1.95;;;;;;;;;;10540343;28;20032;-83
2023/03/10 07:18:48;;;;;;;6.88;2.75;;;;;;;;;;10536864;28;20044;-84
2023/03/10 07:23:49;;;;;;;8.10;3.58;;;;;;;;;;10531222;28;20049;-84
2023/03/10 07:28:51;;;;;;;6.93;2.90;;;;;;;;;;10527007;28;20040;-83
2023/03/10 07:33:53;;;;;;;4.43;1.60;;;;;;;;;;10526175;28;20025;-83
2023/03/10 07:38:54;;;;;;;5.60;1.80;;;;;;;;;;10525279;28;20028;-84
2023/03/10 07:43:55;;;;;;;3.03;1.20;;;;;;;;;;10523129;28;20025;-85
2023/03/10 07:48:58;;;;;;;4.35;2.25;;;;;;;;;;10514970;28;20041;-82
2023/03/10 07:53:59;;;;;;;5.18;1.60;;;;;;;;;;10507886;28;20048;-84
2023/03/10 07:59:00;;;;;;;;;;;;;;;;;;10515802;28;20048;-83
2023/03/10 08:04:07;;;;;;;3.63;1.60;;;;;;;;;;10496470;28;19927;-82
2023/03/10 08:09:08;;;;;;;2.85;1.67;;;;;;;;;;10483410;28;20044;-82
2023/03/10 08:14:09;;;;;;;;;;;;;;;;;;10479885;28;20060;-80
2023/03/10 08:19:10;;;;;;;4.60;3.30;;;;;;;;;;10482630;28;19909;-81
2023/03/10 08:24:11;;;;;;;;;;;;;;;;;;10480394;28;20047;-81
2023/03/10 08:29:12;;;;;;;4.68;2.40;;;;;;;;;;10479456;28;20015;-81
2023/03/10 08:34:13;;;;;;;;;;;;;;;;;;10481440;28;20033;-81
2023/03/10 08:39:14;;;;;;;5.15;2.65;;;;;;;;;;10484026;28;19978;-80
2023/03/10 08:44:16;;;;;;;;;;;;;;;;;;10483989;28;20087;-81
2023/03/10 08:49:19;;;;;;;7.07;2.47;;;;;;;;;;10484287;28;19919;-81
2023/03/10 08:54:21;;;;;;;7.60;4.03;;;;;;;;;;10481824;28;20083;-81
2023/03/10 08:59:22;;;;;;;7.82;3.60;;;;;;;;;;10475807;28;20032;-80
2023/03/10 09:04:23;;;;;;;;;;;;;;;;;;10473474;28;20139;-81
2023/03/10 09:09:24;;;;;;;7.72;5.40;;;;;;;;;;10469860;28;19905;-81
2023/03/10 09:14:25;;;;;;;;;;;;;;;;;;10478955;28;20024;-81
2023/03/10 09:19:26;;;;;;;7.45;4.97;;;;;;;;;;10474310;28;19915;-81
2023/03/10 09:24:27;;;;;;;;;;;;;;;;;;10476067;28;20096;-80
2023/03/10 09:29:31;;;;;;;6.53;4.07;;;;;;;;;;10477127;28;20003;-82
2023/03/10 09:34:32;;;;;;;7.80;3.47;;;;;;;;;;10477276;28;20079;-78
2023/03/10 09:39:32;;;;;;;;;;;;;;;;;;10475181;28;20028;-79
2023/03/10 09:44:45;;;;;;;4.75;2.15;;;;;;;;;;10473597;28;19924;-79
2023/03/10 09:49:54;;;;;;;5.50;2.50;;;;;;;;;;10473493;28;20064;-79
2023/03/10 09:55:15;;;;;;;6.60;2.10;;;;;;;;;;10468404;28;20048;-79
2023/03/10 10:00:19;;;;;;;4.07;1.90;;;;;;;;;;10468953;28;20025;-78
2023/03/10 10:05:26;;;;;;;5.13;1.92;;;;;;;;;;10468302;28;20056;-78
2023/03/10 10:10:29;;;;;;;5.03;2.17;;;;;;;;;;10469380;28;20101;-79
2023/03/10 10:15:31;;;;;;;5.25;2.55;;;;;;;;;;10480214;28;20087;-78
2023/03/10 10:20:34;;;;;;;5.00;2.00;;;;;;;;;;10484445;28;20033;-79
2023/03/10 10:25:36;;;;;;;5.90;2.13;;;;;;;;;;10475495;28;20115;-80
2023/03/10 10:30:38;;;;;;;6.40;2.63;;;;;;;;;;10470969;28;20032;-79
2023/03/10 10:35:42;;;;;;;6.80;2.33;;;;;;;;;;10478968;28;20025;-79
2023/03/10 10:40:51;;;;;;;7.80;3.00;;;;;;;;;;10476316;28;20096;-79
2023/03/10 10:45:57;;;;;;;7.03;1.92;;;;;;;;;;10483385;28;20051;-80
2023/03/10 10:50:58;;;;;;;5.43;2.17;;;;;;;;;;10480924;28;20029;-79
2023/03/10 10:56:03;;;;;;;6.35;2.10;;;;;;;;;;10475967;28;20033;-80
2023/03/10 11:01:05;;;;;;;5.80;1.73;;;;;;;;;;10469089;28;20141;-79
2023/03/10 11:06:14;;;;;;;4.65;1.85;;;;;;;;;;10472633;28;20052;-79
2023/03/10 11:11:18;;;;;;;6.22;2.75;;;;;;;;;;10475523;28;20029;-80
2023/03/10 11:16:25;;;;;;;6.13;2.15;;;;;;;;;;10477606;28;20021;-81
2023/03/10 11:21:28;;;;;;;5.38;1.98;;;;;;;;;;10500864;28;20017;-80
2023/03/10 11:26:35;;;;;;;6.80;2.25;;;;;;;;;;10484994;28;20029;-80
2023/03/10 11:32:11;;;;;;;5.30;1.77;;;;;;;;;;10474637;28;20436;-79
2023/03/10 11:37:13;;;;;;;5.63;1.98;;;;;;;;;;10455440;28;20064;-78
2023/03/10 11:42:20;;;;;;;4.55;1.48;;;;;;;;;;10475731;28;20090;-78
2023/03/10 11:47:27;;;;;;;6.30;2.20;;;;;;;;;;10471949;28;20112;-78
2023/03/10 11:52:30;;;;;;;5.45;2.80;;;;;;;;;;10476828;28;20032;-79
2023/03/10 11:57:33;;;;;;;4.57;1.95;;;;;;;;;;10479862;28;20033;-80
2023/03/10 12:02:44;;;;;;;9.55;4.00;;;;;;;;;;10483091;28;20108;-80
2023/03/10 12:07:46;;;;;;;5.90;1.90;;;;;;;;;;10482209;28;20112;-80
2023/03/10 12:12:48;;;;;;;5.57;1.80;;;;;;;;;;10484203;28;20040;-79
2023/03/10 12:17:50;;;;;;;4.32;1.63;;;;;;;;;;10481288;28;20103;-80
2023/03/10 12:22:52;;;;;;;4.38;1.50;;;;;;;;;;10472323;28;20461;-79
2023/03/10 12:28:12;;;;;;;11.07;9.02;;;;;;;;;;10473463;28;20025;-78
2023/03/10 12:33:41;;;;;;;4.32;2.20;;;;;;;;;;10492290;22;20013;-81
2023/03/10 12:38:42;;;;;;;2.75;1.00;;;;;;;;;;10343642;28;20073;-79
2023/03/10 12:43:43;;;;;;;;;;;;;;;;;;10350888;28;20033;-78
2023/03/10 12:48:53;;;;;;;3.20;1.33;;;;;;;;;;10354887;28;19906;-79
2023/03/10 12:53:58;;;;;;;4.78;1.90;;;;;;;;;;10350391;28;20041;-79
2023/03/10 12:59:10;;;;;;;4.70;1.55;;;;;;;;;;10347262;28;20038;-79
2023/03/10 13:04:14;;;;;;;4.30;1.30;;;;;;;;;;10343905;28;20018;-79
2023/03/10 13:09:25;;;;;;;4.63;1.50;;;;;;;;;;10340291;28;20030;-80
2023/03/10 13:14:35;;;;;;;3.05;1.23;;;;;;;;;;10339526;28;20037;-79
2023/03/10 13:19:37;;;;;;;3.50;1.48;;;;;;;;;;10340347;28;20436;-80
2023/03/10 13:24:39;;;;;;;2.88;1.27;;;;;;;;;;10339860;28;20033;-80
2023/03/10 13:29:40;;;;;;;1.67;0.95;;;;;;;;;;10339284;28;20031;-79
2023/03/10 13:34:41;;;;;;;3.50;1.27;;;;;;;;;;10339007;28;20042;-79
2023/03/10 13:39:42;;;;;;;;;;;;;;;;;;10338990;28;20054;-79
2023/03/10 13:44:46;;;;;;;2.53;1.05;;;;;;;;;;10339836;28;19906;-79
2023/03/10 13:49:51;;;;;;;3.60;1.30;;;;;;;;;;10339449;28;20027;-80
2023/03/10 13:55:03;;;;;;;3.35;1.30;;;;;;;;;;10338335;28;20023;-79
2023/03/10 14:00:08;;;;;;;2.72;1.25;;;;;;;;;;10336177;28;20489;-79
2023/03/10 14:05:29;;;;;;;2.45;0.93;;;;;;;;;;10337377;28;20034;-79
2023/03/10 14:10:30;;;;;;;3.05;1.25;;;;;;;;;;10336563;28;20026;-79
2023/03/10 14:15:37;;;;;;;2.22;1.42;;;;;;;;;;10338424;28;20068;-79
2023/03/10 14:20:39;;;;;;;2.88;1.40;;;;;;;;;;10336253;28;20079;-80
2023/03/10 14:25:40;;;;;;;3.47;1.73;;;;;;;;;;10335555;28;20036;-79
2023/03/10 14:30:43;;;;;;;2.25;0.93;;;;;;;;;;10336864;28;20026;-80
2023/03/10 14:35:46;;;;;;;6.85;4.18;;;;;;;;;;10336174;28;20575;-80
2023/03/10 14:40:51;;;;;;;2.85;1.25;;;;;;;;;;10336158;28;20058;-79
2023/03/10 14:45:53;;;;;;;2.28;1.27;;;;;;;;;;10336535;28;20050;-80
2023/03/10 14:50:54;;;;;;;2.72;1.40;;;;;;;;;;10335131;28;20026;-80
2023/03/10 14:55:56;;;;;;;2.50;1.38;;;;;;;;;;10336348;28;20022;-80
2023/03/10 15:00:58;;;;;;;1.88;1.10;;;;;;;;;;10335672;28;20030;-80
2023/03/10 15:05:59;;;;;;;2.05;0.90;;;;;;;;;;10336606;28;20031;-79
2023/03/10 15:11:00;;;;;;;;;;;;;;;;;;10344862;28;20026;-79
2023/03/10 15:16:01;;;;;;;2.63;1.50;;;;;;;;;;10344146;28;19909;-80
2023/03/10 15:21:02;;;;;;;;;;;;;;;;;;10344896;28;20049;-80
2023/03/10 15:26:08;;;;;;;1.77;1.15;;;;;;;;;;10347693;28;19905;-79
2023/03/10 15:31:09;;;;;;;2.35;1.30;;;;;;;;;;10349229;28;20027;-79
2023/03/10 15:36:10;;;;;;;2.90;1.58;;;;;;;;;;10350554;28;20031;-80
2023/03/10 15:41:12;;;;;;;2.45;1.20;;;;;;;;;;10348913;28;20523;-79
2023/03/10 15:46:13;;;;;;;2.00;1.30;;;;;;;;;;10349204;28;20382;-79
2023/03/10 15:51:16;;;;;;;;;;;;;;;;;;10349653;28;20083;-78
2023/03/10 15:56:19;;;;;;;3.58;1.80;;;;;;;;;;10350690;28;19910;-80
2023/03/10 16:01:20;;;;;;;2.47;1.45;;;;;;;;;;10350924;28;20030;-79
2023/03/10 16:06:28;;;;;;;2.95;1.15;;;;;;;;;;10348417;28;20400;-79
2023/03/10 16:11:29;;;;;;;3.03;1.20;;;;;;;;;;10351967;28;20030;-79
2023/03/10 16:16:30;;;;;;;3.00;1.20;;;;;;;;;;10352282;28;20117;-79
2023/03/10 16:21:31;;;;;;;;;;;;;;;;;;10349134;28;20052;-80
2023/03/10 16:26:32;;;;;;;1.80;1.15;;;;;;;;;;10348165;28;20243;-81
2023/03/10 16:31:33;;;;;;;1.52;1.30;;;;;;;;;;10347377;28;20030;-79
2023/03/10 16:36:35;;;;;;;2.15;1.30;;;;;;;;;;10347736;28;20022;-79
2023/03/10 16:41:37;;;;;;;1.33;0.80;;;;;;;;;;10352270;28;20026;-77
2023/03/10 16:46:38;;;;;;;2.28;1.40;;;;;;;;;;10347075;28;20094;-79
2023/03/10 16:51:40;;;;;;;1.60;1.10;;;;;;;;;;10360577;28;20022;-78
2023/03/10 16:56:43;;;;;;;1.63;1.00;;;;;;;;;;10377743;28;20042;-78
2023/03/10 17:01:44;;;;;;;1.98;1.20;;;;;;;;;;10347060;28;20109;-79
2023/03/10 17:06:45;;;;;;;1.38;1.00;;;;;;;;;;10343261;28;20121;-79
2023/03/10 17:11:51;;;;;;;2.25;1.48;;;;;;;;;;10345657;28;20022;-79
2023/03/10 17:16:53;;;;;;;1.98;1.52;;;;;;;;;;10347455;28;20052;-79
2023/03/10 17:21:54;;;;;;;2.95;1.40;;;;;;;;;;10353194;28;20121;-80
2023/03/10 17:26:55;;;;;;;1.80;1.40;;;;;;;;;;10355704;28;20022;-81
2023/03/10 17:31:56;;;;;;;1.80;1.50;;;;;;;;;;10346444;28;20034;-80
2023/03/10 17:36:57;;;;;;;2.22;1.60;;;;;;;;;;10345785;28;20077;-81
2023/03/10 17:41:58;;;;;;;3.00;2.20;;;;;;;;;;10346025;28;20057;-80
2023/03/10 17:46:59;;;;;;;3.72;2.67;;;;;;;;;;10345788;28;20073;-80
2023/03/10 17:52:00;;;;;;;2.63;1.63;;;;;;;;;;10346490;28;20062;-79
2023/03/10 17:57:01;;;;;;;2.38;1.40;;;;;;;;;;10340495;28;20026;-79
2023/03/10 18:02:02;;;;;;;2.60;1.80;;;;;;;;;;10337168;28;20129;-80
2023/03/10 18:07:03;;;;;;;2.00;1.60;;;;;;;;;;10336959;28;20030;-79
2023/03/10 18:12:05;;;;;;;1.75;1.30;;;;;;;;;;10337917;28;20618;-80
2023/03/10 18:17:06;;;;;;;2.25;1.67;;;;;;;;;;10336585;28;20061;-79
2023/03/10 18:22:07;;;;;;;2.83;1.90;;;;;;;;;;10337035;28;20090;-80
2023/03/10 18:27:09;;;;;;;3.17;2.30;;;;;;;;;;10337354;28;20033;-80
2023/03/10 18:32:10;;;;;;;3.42;2.28;;;;;;;;;;10336303;28;20400;-80
2023/03/10 18:37:11;;;;;;;3.90;2.58;;;;;;;;;;10339266;28;20484;-79
2023/03/10 18:42:12;;;;;;;3.92;2.42;;;;;;;;;;10342483;28;20023;-80
2023/03/10 18:47:13;;;;;;;;;;;;;;;;;;10336270;28;20034;-79
2023/03/10 18:52:15;;;;;;;4.10;2.53;;;;;;;;;;10334990;28;20410;-79
2023/03/10 18:57:16;;;;;;;4.10;2.75;;;;;;;;;;10335696;28;20061;-80
2023/03/10 19:02:17;;;;;;;3.17;2.03;;;;;;;;;;10335745;28;20129;-80
2023/03/10 19:07:21;;;;;;;3.88;2.30;;;;;;;;;;10335460;28;20061;-80
2023/03/10 19:12:23;;;;;;;2.50;1.70;;;;;;;;;;10335955;28;20133;-80
2023/03/10 19:17:28;;;;;;;2.35;1.58;;;;;;;;;;10335509;28;20058;-80
2023/03/10 19:22:31;;;;;;;3.30;2.10;;;;;;;;;;10336690;28;20027;-79
2023/03/10 19:27:32;;;;;;;3.13;1.92;;;;;;;;;;10336968;28;20027;-80
2023/03/10 19:32:33;;;;;;;3.38;2.35;;;;;;;;;;10335634;28;20033;-80
2023/03/10 19:37:35;;;;;;;2.20;1.65;;;;;;;;;;10338569;28;20038;-80
2023/03/10 19:42:37;;;;;;;2.58;1.58;;;;;;;;;;10336749;28;20077;-80
2023/03/10 19:47:38;;;;;;;3.15;2.20;;;;;;;;;;10339920;28;20137;-80
2023/03/10 19:52:46;;;;;;;2.33;1.60;;;;;;;;;;10338120;28;20026;-81
2023/03/10 19:57:48;;;;;;;2.47;1.67;;;;;;;;;;10339987;28;20042;-82
2023/03/10 20:02:49;;;;;;;2.10;1.65;;;;;;;;;;10343951;28;20542;-81
2023/03/10 20:07:50;;;;;;;2.33;1.58;;;;;;;;;;10341496;28;20036;-80
2023/03/10 20:12:51;;;;;;;1.55;1.08;;;;;;;;;;10342246;28;20084;-82
2023/03/10 20:17:53;;;;;;;2.22;1.30;;;;;;;;;;10343079;28;20027;-81
